FMMI Airport Information

Runway Information
Runway 11 Length 10171 ft width 148 ft
Elevation 4197 ft Threshold 0 ft Heading 99
Runway 29 Length 10171 ft Width 148 ft
Elevation 4117 ft Threshold 0 ft Heading 279
Airport Frequencies
Type TWR Name TWR Frequency 120.1 MHZ
Airport Navaids
Type VOR-DME Name Ivato Frequency 114500 KHZ
Airport Weather Information & NOTAM
ADDS - METARS form results

(0940 UTC 26 May 2018)
 
METAR text: FMMI 260930Z 12007KT 070V180 9999 BKN023 23/12 Q1022 NOSIG
Conditions at: FMMI (ANTANANARIVO/IVA, KM) observed 0930 UTC 26 May 2018
Temperature: 23.0°C (73°F)
Dewpoint: 12.0°C (54°F) [RH = 50%]
Pressure (altimeter): 30.18 inches Hg (1022.0 mb)
Winds: from the ESE (120 degrees) at 8 MPH (7 knots; 3.6 m/s)
Visibility: 6 or more miles (10+ km)
Ceiling: 2300 feet AGL
Clouds: broken clouds at 2300 feet AGL
Weather: no significant weather observed at this time

METAR text: FMMI 260900Z 13007KT 060V200 9999 BKN020 23/12 Q1022 NOSIG
Conditions at: FMMI (ANTANANARIVO/IVA, KM) observed 0900 UTC 26 May 2018
Temperature: 23.0°C (73°F)
Dewpoint: 12.0°C (54°F) [RH = 50%]
Pressure (altimeter): 30.18 inches Hg (1022.0 mb)
Winds: from the SE (130 degrees) at 8 MPH (7 knots; 3.6 m/s)
Visibility: 6 or more miles (10+ km)
Ceiling: 2000 feet AGL
Clouds: broken clouds at 2000 feet AGL
Weather: no significant weather observed at this time